Terminal Aerodrome Forecast
Issued by NWS Sioux Falls, SD

Home | Current Version | Previous Version | Graphics & Text | Print | Product List | Glossary On
Versions: 1 2 3 4 5 6 7 8 9 10 11 12 13 14 15 16 17 18 19
000
FTUS43 KFSD 201136
TAFHON
TAF
KHON 201136Z 2012/2112 34011KT 5SM -SN OVC025
     FM201300 33011KT P6SM VCSH OVC020
     FM201500 33012G19KT P6SM OVC030
     FM202200 31011KT P6SM SCT045
     FM210100 29007KT P6SM FEW200
     FM210600 26006KT P6SM SKC=

USA.gov is the U.S. government's official web portal to all federal, state and local government web resources and services.